sensor_id;sensor_type;location;lat;lon;timestamp;P1;durP1;ratioP1;P2;durP2;ratioP2
63818;SDS011;49970;54.976;73.248;2022-09-17T00:01:30;75.50;;;30.20;;
63818;SDS011;49970;54.976;73.248;2022-09-17T00:04:08;59.10;;;30.35;;
63818;SDS011;49970;54.976;73.248;2022-09-17T00:06:35;65.20;;;31.02;;
63818;SDS011;49970;54.976;73.248;2022-09-17T00:09:11;69.95;;;29.38;;
63818;SDS011;49970;54.976;73.248;2022-09-17T00:11:39;116.93;;;54.13;;
63818;SDS011;49970;54.976;73.248;2022-09-17T00:14:07;96.28;;;46.55;;
63818;SDS011;49970;54.976;73.248;2022-09-17T00:16:41;86.55;;;36.63;;
63818;SDS011;49970;54.976;73.248;2022-09-17T00:19:16;81.93;;;36.65;;
63818;SDS011;49970;54.976;73.248;2022-09-17T00:21:44;85.68;;;40.45;;
63818;SDS011;49970;54.976;73.248;2022-09-17T00:24:12;79.13;;;37.25;;
63818;SDS011;49970;54.976;73.248;2022-09-17T00:26:39;70.30;;;34.08;;
63818;SDS011;49970;54.976;73.248;2022-09-17T00:29:16;77.22;;;33.25;;
63818;SDS011;49970;54.976;73.248;2022-09-17T00:31:42;66.72;;;29.25;;
63818;SDS011;49970;54.976;73.248;2022-09-17T00:34:17;55.72;;;29.85;;
63818;SDS011;49970;54.976;73.248;2022-09-17T00:36:43;66.55;;;25.73;;
63818;SDS011;49970;54.976;73.248;2022-09-17T00:39:10;55.58;;;25.02;;
63818;SDS011;49970;54.976;73.248;2022-09-17T00:41:42;51.97;;;23.48;;
63818;SDS011;49970;54.976;73.248;2022-09-17T00:47:32;48.28;;;25.58;;
63818;SDS011;49970;54.976;73.248;2022-09-17T00:50:27;56.00;;;24.00;;
63818;SDS011;49970;54.976;73.248;2022-09-17T00:52:56;62.25;;;24.42;;
63818;SDS011;49970;54.976;73.248;2022-09-17T00:56:06;63.55;;;23.98;;
63818;SDS011;49970;54.976;73.248;2022-09-17T00:58:34;61.50;;;23.95;;
63818;SDS011;49970;54.976;73.248;2022-09-17T01:01:12;58.78;;;24.08;;
63818;SDS011;49970;54.976;73.248;2022-09-17T01:03:38;59.72;;;23.45;;
63818;SDS011;49970;54.976;73.248;2022-09-17T01:06:52;52.58;;;25.15;;
63818;SDS011;49970;54.976;73.248;2022-09-17T01:09:11;59.88;;;23.67;;
63818;SDS011;49970;54.976;73.248;2022-09-17T01:14:37;51.25;;;22.63;;
63818;SDS011;49970;54.976;73.248;2022-09-17T01:17:42;71.72;;;23.30;;
63818;SDS011;49970;54.976;73.248;2022-09-17T01:23:24;58.45;;;23.85;;
63818;SDS011;49970;54.976;73.248;2022-09-17T01:34:49;37.25;;;22.27;;
63818;SDS011;49970;54.976;73.248;2022-09-17T01:42:35;56.93;;;23.67;;
63818;SDS011;49970;54.976;73.248;2022-09-17T01:46:29;57.60;;;25.45;;
63818;SDS011;49970;54.976;73.248;2022-09-17T01:50:22;59.65;;;24.27;;
63818;SDS011;49970;54.976;73.248;2022-09-17T01:54:34;62.80;;;25.10;;
63818;SDS011;49970;54.976;73.248;2022-09-17T02:00:09;65.07;;;24.95;;
63818;SDS011;49970;54.976;73.248;2022-09-17T02:02:53;60.92;;;25.58;;
63818;SDS011;49970;54.976;73.248;2022-09-17T02:05:34;63.13;;;24.73;;
63818;SDS011;49970;54.976;73.248;2022-09-17T02:08:05;70.10;;;25.88;;
63818;SDS011;49970;54.976;73.248;2022-09-17T02:13:35;60.20;;;24.35;;
63818;SDS011;49970;54.976;73.248;2022-09-17T02:16:15;75.18;;;26.23;;
63818;SDS011;49970;54.976;73.248;2022-09-17T02:19:10;104.68;;;34.42;;
63818;SDS011;49970;54.976;73.248;2022-09-17T02:24:31;116.75;;;28.98;;
63818;SDS011;49970;54.976;73.248;2022-09-17T02:27:13;118.05;;;28.08;;
63818;SDS011;49970;54.976;73.248;2022-09-17T02:31:14;91.15;;;24.60;;
63818;SDS011;49970;54.976;73.248;2022-09-17T02:33:41;74.47;;;24.27;;
63818;SDS011;49970;54.976;73.248;2022-09-17T02:36:21;62.15;;;22.83;;
63818;SDS011;49970;54.976;73.248;2022-09-17T02:38:58;71.68;;;22.38;;
63818;SDS011;49970;54.976;73.248;2022-09-17T02:44:48;50.15;;;19.58;;
63818;SDS011;49970;54.976;73.248;2022-09-17T02:53:12;50.78;;;16.33;;
63818;SDS011;49970;54.976;73.248;2022-09-17T02:55:52;38.40;;;15.32;;
63818;SDS011;49970;54.976;73.248;2022-09-17T03:05:26;47.80;;;16.70;;
63818;SDS011;49970;54.976;73.248;2022-09-17T03:09:17;48.15;;;16.27;;
63818;SDS011;49970;54.976;73.248;2022-09-17T03:11:59;53.90;;;16.70;;
63818;SDS011;49970;54.976;73.248;2022-09-17T03:14:26;35.75;;;16.30;;
63818;SDS011;49970;54.976;73.248;2022-09-17T03:16:57;62.13;;;16.90;;
63818;SDS011;49970;54.976;73.248;2022-09-17T03:19:23;40.65;;;15.18;;
63818;SDS011;49970;54.976;73.248;2022-09-17T03:21:50;54.72;;;15.45;;
63818;SDS011;49970;54.976;73.248;2022-09-17T03:24:21;48.55;;;14.27;;
63818;SDS011;49970;54.976;73.248;2022-09-17T03:26:47;47.80;;;15.75;;
63818;SDS011;49970;54.976;73.248;2022-09-17T03:30:38;47.15;;;14.05;;
63818;SDS011;49970;54.976;73.248;2022-09-17T03:34:29;38.65;;;13.55;;
63818;SDS011;49970;54.976;73.248;2022-09-17T03:36:55;45.13;;;13.73;;
63818;SDS011;49970;54.976;73.248;2022-09-17T03:39:27;50.40;;;12.10;;
63818;SDS011;49970;54.976;73.248;2022-09-17T03:41:55;45.95;;;13.27;;
63818;SDS011;49970;54.976;73.248;2022-09-17T03:44:21;41.97;;;12.77;;
63818;SDS011;49970;54.976;73.248;2022-09-17T03:46:48;38.13;;;12.75;;
63818;SDS011;49970;54.976;73.248;2022-09-17T03:49:15;31.33;;;11.32;;
63818;SDS011;49970;54.976;73.248;2022-09-17T03:51:53;29.20;;;11.75;;
63818;SDS011;49970;54.976;73.248;2022-09-17T03:54:25;32.05;;;10.13;;
63818;SDS011;49970;54.976;73.248;2022-09-17T03:56:51;33.72;;;9.95;;
63818;SDS011;49970;54.976;73.248;2022-09-17T03:59:21;29.50;;;9.82;;
63818;SDS011;49970;54.976;73.248;2022-09-17T04:01:48;33.45;;;10.40;;
63818;SDS011;49970;54.976;73.248;2022-09-17T04:04:14;33.40;;;10.45;;
63818;SDS011;49970;54.976;73.248;2022-09-17T04:06:40;44.33;;;10.15;;
63818;SDS011;49970;54.976;73.248;2022-09-17T04:09:15;32.40;;;10.65;;
63818;SDS011;49970;54.976;73.248;2022-09-17T04:11:41;33.20;;;8.18;;
63818;SDS011;49970;54.976;73.248;2022-09-17T04:14:08;18.30;;;7.80;;
63818;SDS011;49970;54.976;73.248;2022-09-17T04:16:39;19.88;;;7.15;;
63818;SDS011;49970;54.976;73.248;2022-09-17T04:19:05;26.15;;;8.48;;
63818;SDS011;49970;54.976;73.248;2022-09-17T04:21:31;28.20;;;8.25;;
63818;SDS011;49970;54.976;73.248;2022-09-17T04:24:06;25.60;;;7.88;;
63818;SDS011;49970;54.976;73.248;2022-09-17T04:26:32;36.67;;;8.73;;
63818;SDS011;49970;54.976;73.248;2022-09-17T04:28:59;33.17;;;7.25;;
63818;SDS011;49970;54.976;73.248;2022-09-17T04:31:25;27.25;;;8.50;;
63818;SDS011;49970;54.976;73.248;2022-09-17T04:33:52;37.20;;;7.22;;
63818;SDS011;49970;54.976;73.248;2022-09-17T04:36:18;30.17;;;6.95;;
63818;SDS011;49970;54.976;73.248;2022-09-17T04:38:47;15.35;;;5.32;;
63818;SDS011;49970;54.976;73.248;2022-09-17T04:41:14;26.30;;;4.70;;
63818;SDS011;49970;54.976;73.248;2022-09-17T04:43:40;17.42;;;6.25;;
63818;SDS011;49970;54.976;73.248;2022-09-17T04:46:06;13.00;;;5.25;;
63818;SDS011;49970;54.976;73.248;2022-09-17T04:48:33;15.35;;;4.53;;
63818;SDS011;49970;54.976;73.248;2022-09-17T04:50:59;25.15;;;4.38;;
63818;SDS011;49970;54.976;73.248;2022-09-17T04:53:25;13.02;;;4.53;;
63818;SDS011;49970;54.976;73.248;2022-09-17T04:55:51;12.02;;;4.00;;
63818;SDS011;49970;54.976;73.248;2022-09-17T04:58:18;8.57;;;3.30;;
63818;SDS011;49970;54.976;73.248;2022-09-17T05:00:44;7.13;;;3.22;;
63818;SDS011;49970;54.976;73.248;2022-09-17T05:03:10;13.90;;;3.17;;
63818;SDS011;49970;54.976;73.248;2022-09-17T05:05:39;20.40;;;4.13;;
63818;SDS011;49970;54.976;73.248;2022-09-17T05:08:06;21.45;;;3.20;;
63818;SDS011;49970;54.976;73.248;2022-09-17T05:10:33;12.20;;;3.05;;
63818;SDS011;49970;54.976;73.248;2022-09-17T05:13:04;20.13;;;3.25;;
63818;SDS011;49970;54.976;73.248;2022-09-17T05:15:31;22.08;;;3.63;;
63818;SDS011;49970;54.976;73.248;2022-09-17T05:18:07;7.75;;;2.13;;
63818;SDS011;49970;54.976;73.248;2022-09-17T05:20:34;19.13;;;2.42;;
63818;SDS011;49970;54.976;73.248;2022-09-17T05:23:00;46.42;;;3.40;;
63818;SDS011;49970;54.976;73.248;2022-09-17T05:25:27;15.45;;;2.67;;
63818;SDS011;49970;54.976;73.248;2022-09-17T05:28:02;6.80;;;1.95;;
63818;SDS011;49970;54.976;73.248;2022-09-17T05:30:28;9.70;;;2.72;;
63818;SDS011;49970;54.976;73.248;2022-09-17T05:32:58;25.85;;;2.13;;
63818;SDS011;49970;54.976;73.248;2022-09-17T05:35:26;16.23;;;1.90;;
63818;SDS011;49970;54.976;73.248;2022-09-17T05:37:55;5.05;;;1.58;;
63818;SDS011;49970;54.976;73.248;2022-09-17T05:40:32;5.85;;;1.50;;
63818;SDS011;49970;54.976;73.248;2022-09-17T05:42:59;17.35;;;1.77;;
63818;SDS011;49970;54.976;73.248;2022-09-17T05:45:26;21.83;;;2.20;;
63818;SDS011;49970;54.976;73.248;2022-09-17T05:47:54;10.75;;;1.70;;
63818;SDS011;49970;54.976;73.248;2022-09-17T05:50:32;9.20;;;1.58;;
63818;SDS011;49970;54.976;73.248;2022-09-17T05:53:05;8.32;;;1.50;;
63818;SDS011;49970;54.976;73.248;2022-09-17T05:55:40;17.08;;;1.23;;
63818;SDS011;49970;54.976;73.248;2022-09-17T06:03:07;6.78;;;0.90;;
63818;SDS011;49970;54.976;73.248;2022-09-17T06:05:35;7.07;;;1.40;;
63818;SDS011;49970;54.976;73.248;2022-09-17T06:08:02;9.77;;;1.00;;
63818;SDS011;49970;54.976;73.248;2022-09-17T06:10:28;11.88;;;1.15;;
63818;SDS011;49970;54.976;73.248;2022-09-17T06:13:04;2.70;;;1.25;;
63818;SDS011;49970;54.976;73.248;2022-09-17T06:15:31;3.58;;;1.00;;
63818;SDS011;49970;54.976;73.248;2022-09-17T06:18:03;9.85;;;1.55;;
63818;SDS011;49970;54.976;73.248;2022-09-17T06:20:29;2.50;;;0.85;;
63818;SDS011;49970;54.976;73.248;2022-09-17T06:23:00;9.73;;;1.52;;
63818;SDS011;49970;54.976;73.248;2022-09-17T06:25:26;7.07;;;2.10;;
63818;SDS011;49970;54.976;73.248;2022-09-17T06:27:54;5.28;;;2.15;;
63818;SDS011;49970;54.976;73.248;2022-09-17T06:30:20;12.48;;;2.70;;
63818;SDS011;49970;54.976;73.248;2022-09-17T06:32:46;21.05;;;4.88;;
63818;SDS011;49970;54.976;73.248;2022-09-17T06:35:12;5.70;;;1.58;;
63818;SDS011;49970;54.976;73.248;2022-09-17T06:37:38;17.98;;;2.00;;
63818;SDS011;49970;54.976;73.248;2022-09-17T06:40:06;12.90;;;2.00;;
63818;SDS011;49970;54.976;73.248;2022-09-17T06:42:33;1.88;;;1.55;;
63818;SDS011;49970;54.976;73.248;2022-09-17T06:44:59;2.95;;;1.60;;
63818;SDS011;49970;54.976;73.248;2022-09-17T06:47:31;4.88;;;1.50;;
63818;SDS011;49970;54.976;73.248;2022-09-17T06:49:57;13.85;;;1.65;;
63818;SDS011;49970;54.976;73.248;2022-09-17T06:52:34;6.65;;;1.52;;
63818;SDS011;49970;54.976;73.248;2022-09-17T06:55:11;10.05;;;1.77;;
63818;SDS011;49970;54.976;73.248;2022-09-17T06:57:47;2.47;;;1.40;;
63818;SDS011;49970;54.976;73.248;2022-09-17T07:00:22;6.40;;;2.88;;
63818;SDS011;49970;54.976;73.248;2022-09-17T07:02:55;6.95;;;1.30;;
63818;SDS011;49970;54.976;73.248;2022-09-17T07:05:25;2.65;;;1.00;;
63818;SDS011;49970;54.976;73.248;2022-09-17T07:07:53;13.05;;;1.00;;
63818;SDS011;49970;54.976;73.248;2022-09-17T07:10:20;20.27;;;1.08;;
63818;SDS011;49970;54.976;73.248;2022-09-17T07:12:48;5.53;;;0.95;;
63818;SDS011;49970;54.976;73.248;2022-09-17T07:15:14;5.00;;;0.80;;
63818;SDS011;49970;54.976;73.248;2022-09-17T07:17:41;9.35;;;1.75;;
63818;SDS011;49970;54.976;73.248;2022-09-17T07:20:09;4.75;;;1.92;;
63818;SDS011;49970;54.976;73.248;2022-09-17T07:22:36;5.15;;;1.30;;
63818;SDS011;49970;54.976;73.248;2022-09-17T07:26:27;14.90;;;1.75;;
63818;SDS011;49970;54.976;73.248;2022-09-17T07:30:19;16.75;;;1.10;;
63818;SDS011;49970;54.976;73.248;2022-09-17T07:34:10;6.72;;;1.17;;
63818;SDS011;49970;54.976;73.248;2022-09-17T07:38:01;5.70;;;1.60;;
63818;SDS011;49970;54.976;73.248;2022-09-17T07:41:52;21.70;;;1.42;;
63818;SDS011;49970;54.976;73.248;2022-09-17T07:44:24;6.72;;;1.30;;
63818;SDS011;49970;54.976;73.248;2022-09-17T07:46:55;5.53;;;1.65;;
63818;SDS011;49970;54.976;73.248;2022-09-17T07:49:41;11.73;;;4.80;;
63818;SDS011;49970;54.976;73.248;2022-09-17T07:53:32;19.95;;;1.10;;
63818;SDS011;49970;54.976;73.248;2022-09-17T07:57:51;4.97;;;0.95;;
63818;SDS011;49970;54.976;73.248;2022-09-17T08:01:42;4.97;;;0.90;;
63818;SDS011;49970;54.976;73.248;2022-09-17T08:05:33;4.93;;;1.42;;
63818;SDS011;49970;54.976;73.248;2022-09-17T08:09:22;4.88;;;1.42;;
63818;SDS011;49970;54.976;73.248;2022-09-17T08:13:14;27.83;;;1.50;;
63818;SDS011;49970;54.976;73.248;2022-09-17T08:17:06;4.97;;;1.15;;
63818;SDS011;49970;54.976;73.248;2022-09-17T08:20:57;15.40;;;1.50;;
63818;SDS011;49970;54.976;73.248;2022-09-17T08:25:59;9.07;;;2.08;;
63818;SDS011;49970;54.976;73.248;2022-09-17T08:28:53;10.25;;;1.00;;
63818;SDS011;49970;54.976;73.248;2022-09-17T08:31:26;1.88;;;1.40;;
63818;SDS011;49970;54.976;73.248;2022-09-17T08:33:54;6.50;;;1.00;;
63818;SDS011;49970;54.976;73.248;2022-09-17T08:36:30;2.67;;;1.42;;
63818;SDS011;49970;54.976;73.248;2022-09-17T08:40:22;11.40;;;2.15;;
63818;SDS011;49970;54.976;73.248;2022-09-17T08:46:46;6.35;;;1.10;;
63818;SDS011;49970;54.976;73.248;2022-09-17T08:54:50;3.80;;;0.85;;
63818;SDS011;49970;54.976;73.248;2022-09-17T09:02:02;12.27;;;1.02;;
63818;SDS011;49970;54.976;73.248;2022-09-17T09:04:57;7.53;;;1.25;;
63818;SDS011;49970;54.976;73.248;2022-09-17T09:07:30;10.95;;;1.67;;
63818;SDS011;49970;54.976;73.248;2022-09-17T09:12:30;8.48;;;1.90;;
63818;SDS011;49970;54.976;73.248;2022-09-17T09:18:11;12.35;;;1.65;;
63818;SDS011;49970;54.976;73.248;2022-09-17T09:20:52;12.60;;;1.25;;
63818;SDS011;49970;54.976;73.248;2022-09-17T09:23:32;12.02;;;1.33;;
63818;SDS011;49970;54.976;73.248;2022-09-17T09:26:22;27.80;;;2.17;;
63818;SDS011;49970;54.976;73.248;2022-09-17T09:29:03;14.75;;;1.85;;
63818;SDS011;49970;54.976;73.248;2022-09-17T09:34:29;18.33;;;2.08;;
63818;SDS011;49970;54.976;73.248;2022-09-17T09:40:15;8.70;;;2.30;;
63818;SDS011;49970;54.976;73.248;2022-09-17T09:42:51;27.35;;;2.58;;
63818;SDS011;49970;54.976;73.248;2022-09-17T09:45:27;16.08;;;1.63;;
63818;SDS011;49970;54.976;73.248;2022-09-17T09:48:32;15.98;;;2.20;;
63818;SDS011;49970;54.976;73.248;2022-09-17T09:51:27;6.97;;;1.85;;
63818;SDS011;49970;54.976;73.248;2022-09-17T09:54:25;13.18;;;1.63;;
63818;SDS011;49970;54.976;73.248;2022-09-17T09:57:17;26.15;;;2.78;;
63818;SDS011;49970;54.976;73.248;2022-09-17T10:02:52;13.40;;;2.90;;
63818;SDS011;49970;54.976;73.248;2022-09-17T10:05:50;22.05;;;5.47;;
63818;SDS011;49970;54.976;73.248;2022-09-17T10:08:41;13.75;;;2.30;;
63818;SDS011;49970;54.976;73.248;2022-09-17T10:11:28;16.88;;;3.08;;
63818;SDS011;49970;54.976;73.248;2022-09-17T10:14:40;9.10;;;2.50;;
63818;SDS011;49970;54.976;73.248;2022-09-17T10:16:49;17.40;;;3.90;;
63818;SDS011;49970;54.976;73.248;2022-09-17T10:19:35;2.97;;;2.10;;
63818;SDS011;49970;54.976;73.248;2022-09-17T10:22:17;8.00;;;0.80;;
63818;SDS011;49970;54.976;73.248;2022-09-17T10:24:50;10.30;;;1.25;;
63818;SDS011;49970;54.976;73.248;2022-09-17T10:27:18;12.70;;;1.20;;
63818;SDS011;49970;54.976;73.248;2022-09-17T10:32:33;12.52;;;1.60;;
63818;SDS011;49970;54.976;73.248;2022-09-17T10:35:01;22.60;;;2.22;;
63818;SDS011;49970;54.976;73.248;2022-09-17T10:37:33;12.23;;;2.25;;
63818;SDS011;49970;54.976;73.248;2022-09-17T10:42:48;26.73;;;2.20;;
63818;SDS011;49970;54.976;73.248;2022-09-17T10:45:23;12.23;;;2.85;;
63818;SDS011;49970;54.976;73.248;2022-09-17T10:48:03;15.25;;;1.67;;
63818;SDS011;49970;54.976;73.248;2022-09-17T10:50:39;8.02;;;1.60;;
63818;SDS011;49970;54.976;73.248;2022-09-17T10:53:16;8.48;;;1.20;;
63818;SDS011;49970;54.976;73.248;2022-09-17T10:56:02;9.85;;;1.58;;
63818;SDS011;49970;54.976;73.248;2022-09-17T11:02:05;17.92;;;3.50;;
63818;SDS011;49970;54.976;73.248;2022-09-17T11:04:44;19.17;;;2.10;;
63818;SDS011;49970;54.976;73.248;2022-09-17T11:07:46;5.97;;;2.40;;
63818;SDS011;49970;54.976;73.248;2022-09-17T11:10:25;9.48;;;2.50;;
63818;SDS011;49970;54.976;73.248;2022-09-17T11:23:33;8.65;;;1.10;;
63818;SDS011;49970;54.976;73.248;2022-09-17T11:26:29;4.47;;;1.30;;
63818;SDS011;49970;54.976;73.248;2022-09-17T11:29:23;20.08;;;2.08;;
63818;SDS011;49970;54.976;73.248;2022-09-17T11:34:46;15.82;;;2.33;;
63818;SDS011;49970;54.976;73.248;2022-09-17T11:42:23;10.88;;;3.13;;
63818;SDS011;49970;54.976;73.248;2022-09-17T11:45:19;11.70;;;1.65;;
63818;SDS011;49970;54.976;73.248;2022-09-17T11:53:14;37.20;;;11.68;;
63818;SDS011;49970;54.976;73.248;2022-09-17T11:56:07;34.28;;;15.60;;
63818;SDS011;49970;54.976;73.248;2022-09-17T11:59:08;34.95;;;14.15;;
63818;SDS011;49970;54.976;73.248;2022-09-17T12:01:59;24.17;;;5.93;;
63818;SDS011;49970;54.976;73.248;2022-09-17T12:05:05;41.33;;;9.88;;
63818;SDS011;49970;54.976;73.248;2022-09-17T12:12:58;25.25;;;11.77;;
63818;SDS011;49970;54.976;73.248;2022-09-17T12:15:46;15.65;;;6.57;;
63818;SDS011;49970;54.976;73.248;2022-09-17T12:20:49;22.73;;;6.65;;
63818;SDS011;49970;54.976;73.248;2022-09-17T12:23:35;38.30;;;5.10;;
63818;SDS011;49970;54.976;73.248;2022-09-17T12:31:19;17.85;;;5.60;;
63818;SDS011;49970;54.976;73.248;2022-09-17T12:37:04;33.88;;;6.75;;
63818;SDS011;49970;54.976;73.248;2022-09-17T12:45:28;31.15;;;8.68;;
63818;SDS011;49970;54.976;73.248;2022-09-17T12:53:42;25.95;;;12.45;;
63818;SDS011;49970;54.976;73.248;2022-09-17T12:56:15;33.30;;;12.90;;
63818;SDS011;49970;54.976;73.248;2022-09-17T13:01:42;38.60;;;16.38;;
63818;SDS011;49970;54.976;73.248;2022-09-17T13:07:33;45.28;;;16.92;;
63818;SDS011;49970;54.976;73.248;2022-09-17T13:10:33;57.67;;;18.70;;
63818;SDS011;49970;54.976;73.248;2022-09-17T13:21:16;55.50;;;19.48;;
63818;SDS011;49970;54.976;73.248;2022-09-17T13:24:02;55.97;;;20.20;;
63818;SDS011;49970;54.976;73.248;2022-09-17T13:26:54;49.92;;;22.60;;
63818;SDS011;49970;54.976;73.248;2022-09-17T13:40:24;86.18;;;32.65;;
63818;SDS011;49970;54.976;73.248;2022-09-17T13:42:53;75.57;;;31.33;;
63818;SDS011;49970;54.976;73.248;2022-09-17T13:45:22;71.88;;;33.38;;
63818;SDS011;49970;54.976;73.248;2022-09-17T13:47:51;79.18;;;34.55;;
63818;SDS011;49970;54.976;73.248;2022-09-17T13:55:52;85.75;;;41.38;;
63818;SDS011;49970;54.976;73.248;2022-09-17T13:58:21;98.40;;;40.97;;
63818;SDS011;49970;54.976;73.248;2022-09-17T14:00:57;118.35;;;39.28;;
63818;SDS011;49970;54.976;73.248;2022-09-17T14:05:57;117.68;;;44.22;;
63818;SDS011;49970;54.976;73.248;2022-09-17T14:08:47;124.18;;;44.35;;
63818;SDS011;49970;54.976;73.248;2022-09-17T14:32:45;221.15;;;101.13;;
63818;SDS011;49970;54.976;73.248;2022-09-17T14:38:20;178.45;;;92.90;;
63818;SDS011;49970;54.976;73.248;2022-09-17T14:40:57;197.18;;;110.88;;
63818;SDS011;49970;54.976;73.248;2022-09-17T14:44:13;218.52;;;113.63;;
63818;SDS011;49970;54.976;73.248;2022-09-17T14:46:36;201.70;;;107.72;;
63818;SDS011;49970;54.976;73.248;2022-09-17T14:49:14;282.95;;;113.38;;
63818;SDS011;49970;54.976;73.248;2022-09-17T14:51:53;240.48;;;115.15;;
63818;SDS011;49970;54.976;73.248;2022-09-17T14:59:47;275.27;;;117.85;;
63818;SDS011;49970;54.976;73.248;2022-09-17T15:04:53;261.90;;;113.88;;
63818;SDS011;49970;54.976;73.248;2022-09-17T15:07:20;237.60;;;111.00;;
63818;SDS011;49970;54.976;73.248;2022-09-17T15:09:47;210.48;;;108.53;;
63818;SDS011;49970;54.976;73.248;2022-09-17T15:12:24;213.93;;;110.50;;
63818;SDS011;49970;54.976;73.248;2022-09-17T15:14:54;213.30;;;108.78;;
63818;SDS011;49970;54.976;73.248;2022-09-17T15:17:21;218.65;;;108.22;;
63818;SDS011;49970;54.976;73.248;2022-09-17T15:19:52;207.32;;;108.90;;
63818;SDS011;49970;54.976;73.248;2022-09-17T15:24:57;218.27;;;109.97;;
63818;SDS011;49970;54.976;73.248;2022-09-17T15:30:05;212.43;;;109.55;;
63818;SDS011;49970;54.976;73.248;2022-09-17T15:33:00;227.50;;;108.32;;
63818;SDS011;49970;54.976;73.248;2022-09-17T15:35:36;213.10;;;111.90;;
63818;SDS011;49970;54.976;73.248;2022-09-17T15:38:20;217.93;;;111.18;;
63818;SDS011;49970;54.976;73.248;2022-09-17T15:40:51;219.27;;;107.90;;
63818;SDS011;49970;54.976;73.248;2022-09-17T15:43:28;204.32;;;109.13;;
63818;SDS011;49970;54.976;73.248;2022-09-17T15:45:56;225.90;;;115.20;;
63818;SDS011;49970;54.976;73.248;2022-09-17T15:48:47;209.13;;;119.72;;
63818;SDS011;49970;54.976;73.248;2022-09-17T15:51:27;231.35;;;123.72;;
63818;SDS011;49970;54.976;73.248;2022-09-17T15:54:01;212.73;;;117.72;;
63818;SDS011;49970;54.976;73.248;2022-09-17T16:01:51;220.05;;;120.38;;
63818;SDS011;49970;54.976;73.248;2022-09-17T16:04:21;222.43;;;112.15;;
63818;SDS011;49970;54.976;73.248;2022-09-17T16:07:36;206.02;;;113.32;;
63818;SDS011;49970;54.976;73.248;2022-09-17T16:09:39;201.90;;;112.95;;
63818;SDS011;49970;54.976;73.248;2022-09-17T16:12:18;202.55;;;111.47;;
63818;SDS011;49970;54.976;73.248;2022-09-17T16:14:50;188.77;;;105.85;;
63818;SDS011;49970;54.976;73.248;2022-09-17T16:17:23;188.85;;;103.55;;
63818;SDS011;49970;54.976;73.248;2022-09-17T16:19:55;193.57;;;102.25;;
63818;SDS011;49970;54.976;73.248;2022-09-17T16:22:32;200.57;;;100.65;;
63818;SDS011;49970;54.976;73.248;2022-09-17T16:24:58;188.73;;;100.93;;
63818;SDS011;49970;54.976;73.248;2022-09-17T16:27:25;189.20;;;101.88;;
63818;SDS011;49970;54.976;73.248;2022-09-17T16:30:03;197.00;;;103.20;;
63818;SDS011;49970;54.976;73.248;2022-09-17T16:32:34;190.77;;;99.15;;
63818;SDS011;49970;54.976;73.248;2022-09-17T16:35:00;204.93;;;100.28;;
63818;SDS011;49970;54.976;73.248;2022-09-17T16:37:26;193.88;;;95.90;;
63818;SDS011;49970;54.976;73.248;2022-09-17T16:39:53;184.60;;;88.15;;
63818;SDS011;49970;54.976;73.248;2022-09-17T16:42:24;194.10;;;94.43;;
63818;SDS011;49970;54.976;73.248;2022-09-17T16:44:50;162.40;;;87.18;;
63818;SDS011;49970;54.976;73.248;2022-09-17T16:47:16;173.52;;;87.82;;
63818;SDS011;49970;54.976;73.248;2022-09-17T16:49:43;200.10;;;87.28;;
63818;SDS011;49970;54.976;73.248;2022-09-17T16:52:09;190.07;;;89.13;;
63818;SDS011;49970;54.976;73.248;2022-09-17T16:54:35;194.07;;;88.13;;
63818;SDS011;49970;54.976;73.248;2022-09-17T16:57:01;184.75;;;91.90;;
63818;SDS011;49970;54.976;73.248;2022-09-17T16:59:28;192.57;;;98.07;;
63818;SDS011;49970;54.976;73.248;2022-09-17T17:01:54;206.65;;;93.07;;
63818;SDS011;49970;54.976;73.248;2022-09-17T17:05:44;222.70;;;103.57;;
63818;SDS011;49970;54.976;73.248;2022-09-17T17:09:35;191.57;;;94.95;;
63818;SDS011;49970;54.976;73.248;2022-09-17T17:13:51;149.00;;;74.13;;
63818;SDS011;49970;54.976;73.248;2022-09-17T17:16:24;192.00;;;93.20;;
63818;SDS011;49970;54.976;73.248;2022-09-17T17:18:54;186.07;;;93.40;;
63818;SDS011;49970;54.976;73.248;2022-09-17T17:21:25;186.77;;;90.63;;
63818;SDS011;49970;54.976;73.248;2022-09-17T17:24:05;163.68;;;80.95;;
63818;SDS011;49970;54.976;73.248;2022-09-17T17:26:36;181.32;;;84.97;;
63818;SDS011;49970;54.976;73.248;2022-09-17T17:29:10;159.15;;;82.15;;
63818;SDS011;49970;54.976;73.248;2022-09-17T17:31:45;154.60;;;76.68;;
63818;SDS011;49970;54.976;73.248;2022-09-17T17:34:15;134.77;;;69.35;;
63818;SDS011;49970;54.976;73.248;2022-09-17T17:36:49;136.00;;;51.13;;
63818;SDS011;49970;54.976;73.248;2022-09-17T17:39:20;124.75;;;55.03;;
63818;SDS011;49970;54.976;73.248;2022-09-17T17:41:51;121.97;;;49.67;;
63818;SDS011;49970;54.976;73.248;2022-09-17T17:44:23;101.22;;;48.80;;
63818;SDS011;49970;54.976;73.248;2022-09-17T17:46:54;120.05;;;47.47;;
63818;SDS011;49970;54.976;73.248;2022-09-17T17:49:24;117.65;;;50.55;;
63818;SDS011;49970;54.976;73.248;2022-09-17T17:51:55;112.22;;;49.20;;
63818;SDS011;49970;54.976;73.248;2022-09-17T17:54:25;133.85;;;44.88;;
63818;SDS011;49970;54.976;73.248;2022-09-17T17:56:59;111.53;;;40.70;;
63818;SDS011;49970;54.976;73.248;2022-09-17T17:59:31;133.50;;;41.35;;
63818;SDS011;49970;54.976;73.248;2022-09-17T18:02:06;106.63;;;39.05;;
63818;SDS011;49970;54.976;73.248;2022-09-17T18:04:37;135.70;;;42.92;;
63818;SDS011;49970;54.976;73.248;2022-09-17T18:07:09;91.10;;;35.22;;
63818;SDS011;49970;54.976;73.248;2022-09-17T18:09:41;112.13;;;33.35;;
63818;SDS011;49970;54.976;73.248;2022-09-17T18:12:12;108.38;;;36.92;;
63818;SDS011;49970;54.976;73.248;2022-09-17T18:14:43;75.38;;;35.80;;
63818;SDS011;49970;54.976;73.248;2022-09-17T18:17:14;79.35;;;32.10;;
63818;SDS011;49970;54.976;73.248;2022-09-17T18:19:46;81.63;;;30.70;;
63818;SDS011;49970;54.976;73.248;2022-09-17T18:22:19;83.57;;;28.35;;
63818;SDS011;49970;54.976;73.248;2022-09-17T18:28:03;84.70;;;28.92;;
63818;SDS011;49970;54.976;73.248;2022-09-17T18:30:40;80.28;;;28.75;;
63818;SDS011;49970;54.976;73.248;2022-09-17T18:33:21;81.75;;;31.55;;
63818;SDS011;49970;54.976;73.248;2022-09-17T18:36:00;86.73;;;31.03;;
63818;SDS011;49970;54.976;73.248;2022-09-17T18:38:33;61.20;;;29.63;;
63818;SDS011;49970;54.976;73.248;2022-09-17T18:41:04;76.57;;;28.05;;
63818;SDS011;49970;54.976;73.248;2022-09-17T18:43:32;91.90;;;27.15;;
63818;SDS011;49970;54.976;73.248;2022-09-17T18:46:03;71.65;;;25.83;;
63818;SDS011;49970;54.976;73.248;2022-09-17T18:48:30;61.03;;;27.27;;
63818;SDS011;49970;54.976;73.248;2022-09-17T18:51:00;55.70;;;24.80;;
63818;SDS011;49970;54.976;73.248;2022-09-17T18:53:41;52.40;;;26.05;;
63818;SDS011;49970;54.976;73.248;2022-09-17T18:56:18;62.30;;;23.95;;
63818;SDS011;49970;54.976;73.248;2022-09-17T18:58:57;69.75;;;25.23;;
63818;SDS011;49970;54.976;73.248;2022-09-17T19:01:25;61.28;;;24.00;;
63818;SDS011;49970;54.976;73.248;2022-09-17T19:03:57;52.40;;;23.63;;
63818;SDS011;49970;54.976;73.248;2022-09-17T19:06:24;65.78;;;22.40;;
63818;SDS011;49970;54.976;73.248;2022-09-17T19:08:53;67.10;;;20.30;;